createdAt,value
2018-12-29T00:00:09.357Z,48.65
2018-12-29T00:02:35.381Z,48.68
2018-12-29T00:05:01.342Z,48.54
2018-12-29T00:07:27.335Z,48.63
2018-12-29T00:09:53.339Z,48.62
2018-12-29T00:12:19.307Z,48.58
2018-12-29T00:14:45.281Z,48.60
2018-12-29T00:17:11.292Z,48.61
2018-12-29T00:19:37.261Z,48.46
2018-12-29T00:22:03.250Z,48.31
2018-12-29T00:24:29.261Z,48.58
2018-12-29T00:26:55.252Z,48.54
2018-12-29T00:29:21.239Z,48.57
2018-12-29T00:31:47.245Z,48.52
2018-12-29T00:34:13.225Z,48.50
2018-12-29T00:36:39.223Z,48.47
2018-12-29T00:39:05.245Z,48.40
2018-12-29T00:41:31.207Z,48.46
2018-12-29T00:43:57.201Z,48.37
2018-12-29T00:46:23.256Z,48.41
2018-12-29T00:48:49.273Z,48.38
2018-12-29T00:51:15.268Z,48.38
2018-12-29T00:53:41.258Z,48.39
2018-12-29T00:56:07.296Z,48.30
2018-12-29T00:58:33.284Z,48.41
2018-12-29T01:00:59.285Z,48.31
2018-12-29T01:03:25.301Z,48.37
2018-12-29T01:05:51.300Z,48.33
2018-12-29T01:08:17.293Z,48.29
2018-12-29T01:10:43.330Z,48.25
2018-12-29T01:13:09.344Z,48.06
2018-12-29T01:15:35.377Z,48.28
2018-12-29T01:18:01.345Z,48.26
2018-12-29T01:20:27.332Z,47.95
2018-12-29T01:22:53.363Z,47.93
2018-12-29T01:25:19.331Z,48.24
2018-12-29T01:27:45.320Z,48.12
2018-12-29T01:30:11.337Z,48.11
2018-12-29T01:32:37.301Z,48.16
2018-12-29T01:35:03.291Z,48.10
2018-12-29T01:37:29.329Z,48.14
2018-12-29T01:39:55.326Z,48.13
2018-12-29T01:42:21.301Z,48.05
2018-12-29T01:44:47.303Z,48.01
2018-12-29T01:47:13.275Z,47.85
2018-12-29T01:49:39.252Z,48.10
2018-12-29T01:52:05.265Z,48.06
2018-12-29T01:54:31.247Z,48.01
2018-12-29T01:56:57.215Z,48.08
2018-12-29T01:59:23.243Z,47.99
2018-12-29T02:01:49.313Z,47.80
2018-12-29T02:04:15.327Z,47.88
2018-12-29T02:06:41.309Z,47.98
2018-12-29T02:09:07.275Z,47.94
2018-12-29T02:11:33.307Z,47.97
2018-12-29T02:13:59.271Z,47.93
2018-12-29T02:16:25.258Z,47.99
2018-12-29T02:18:51.248Z,47.75
2018-12-29T02:21:17.277Z,47.93
2018-12-29T02:23:43.375Z,47.91
2018-12-29T02:26:09.408Z,47.87
2018-12-29T02:28:35.397Z,47.76
2018-12-29T02:31:01.373Z,47.90
2018-12-29T02:33:27.417Z,47.89
2018-12-29T02:35:53.397Z,47.84
2018-12-29T02:38:19.372Z,47.84
2018-12-29T02:40:45.408Z,47.83
2018-12-29T02:43:11.436Z,47.71
2018-12-29T02:45:37.408Z,47.74
2018-12-29T02:48:03.437Z,47.74
2018-12-29T02:50:29.419Z,47.78
2018-12-29T02:52:55.451Z,47.83
2018-12-29T02:55:21.456Z,47.76
2018-12-29T02:57:47.444Z,47.67
2018-12-29T03:00:13.457Z,47.78
2018-12-29T03:02:39.439Z,47.71
2018-12-29T03:05:05.417Z,47.47
2018-12-29T03:07:31.462Z,47.70
2018-12-29T03:09:57.475Z,47.54
2018-12-29T03:12:23.474Z,47.66
2018-12-29T03:14:49.440Z,47.65
2018-12-29T03:17:15.463Z,47.56
2018-12-29T03:19:41.434Z,47.61
2018-12-29T03:22:07.473Z,47.57
2018-12-29T03:24:33.477Z,47.38
2018-12-29T03:26:59.458Z,47.64
2018-12-29T03:29:25.446Z,47.64
2018-12-29T03:31:51.478Z,47.37
2018-12-29T03:34:17.510Z,47.56
2018-12-29T03:36:43.569Z,47.56
2018-12-29T03:39:09.560Z,47.22
2018-12-29T03:41:35.524Z,47.38
2018-12-29T03:44:01.540Z,47.43
2018-12-29T03:46:27.574Z,47.39
2018-12-29T03:48:53.542Z,47.46
2018-12-29T03:51:19.501Z,47.47
2018-12-29T03:53:45.526Z,47.51
2018-12-29T03:56:11.509Z,47.56
2018-12-29T03:58:37.504Z,47.50
2018-12-29T04:01:03.525Z,47.52
2018-12-29T04:03:29.499Z,47.48
2018-12-29T04:05:55.509Z,47.42
2018-12-29T04:08:21.552Z,47.48
2018-12-29T04:10:47.515Z,47.36
2018-12-29T04:13:13.602Z,47.14
2018-12-29T04:15:39.617Z,47.34
2018-12-29T04:18:05.646Z,47.37
2018-12-29T04:20:31.647Z,47.42
2018-12-29T04:22:57.614Z,47.37
2018-12-29T04:25:23.626Z,47.43
2018-12-29T04:27:49.603Z,47.22
2018-12-29T04:30:15.615Z,47.35
2018-12-29T04:32:41.619Z,47.43
2018-12-29T04:35:07.587Z,47.39
2018-12-29T04:37:33.579Z,47.36
2018-12-29T04:39:59.613Z,47.39
2018-12-29T04:42:25.579Z,47.28
2018-12-29T04:44:51.571Z,47.38
2018-12-29T04:47:17.594Z,47.34
2018-12-29T04:49:43.695Z,47.39
2018-12-29T04:52:09.670Z,47.37
2018-12-29T04:54:35.720Z,47.29
2018-12-29T04:57:01.700Z,47.29
2018-12-29T04:59:27.686Z,47.35
2018-12-29T05:01:53.716Z,47.12
2018-12-29T05:04:19.687Z,47.24
2018-12-29T05:06:45.649Z,47.33
2018-12-29T05:09:11.661Z,47.19
2018-12-29T05:11:37.637Z,47.32
2018-12-29T05:14:03.604Z,47.30
2018-12-29T05:16:29.623Z,47.29
2018-12-29T05:18:55.647Z,47.25
2018-12-29T05:21:21.625Z,47.31
2018-12-29T05:23:47.618Z,47.25
2018-12-29T05:26:13.638Z,47.29
2018-12-29T05:28:39.637Z,47.26
2018-12-29T05:31:05.617Z,47.31
2018-12-29T05:33:31.634Z,47.14
2018-12-29T05:35:57.638Z,47.23
2018-12-29T05:38:23.602Z,47.17
2018-12-29T05:40:49.623Z,47.23
2018-12-29T05:43:15.615Z,47.14
2018-12-29T05:45:41.617Z,47.19
2018-12-29T05:48:07.623Z,47.16
2018-12-29T05:50:33.620Z,47.17
2018-12-29T05:52:59.593Z,47.11
2018-12-29T05:55:25.630Z,47.11
2018-12-29T05:57:51.605Z,47.19
2018-12-29T06:00:17.608Z,46.96
2018-12-29T06:02:43.614Z,47.19
2018-12-29T06:05:09.604Z,47.22
2018-12-29T06:07:35.589Z,47.26
2018-12-29T06:10:01.607Z,47.06
2018-12-29T06:12:27.573Z,47.28
2018-12-29T06:14:53.645Z,47.29
2018-12-29T06:17:19.584Z,47.32
2018-12-29T06:19:45.548Z,47.33
2018-12-29T06:22:11.526Z,47.29
2018-12-29T06:24:37.567Z,47.31
2018-12-29T06:27:03.552Z,47.34
2018-12-29T06:29:29.560Z,47.32
2018-12-29T06:31:55.606Z,47.29
2018-12-29T06:34:21.591Z,47.28
2018-12-29T06:36:47.589Z,47.31
2018-12-29T06:39:13.608Z,47.28
2018-12-29T06:41:39.606Z,47.33
2018-12-29T06:44:05.595Z,47.30
2018-12-29T06:46:35.125Z,47.26
2018-12-29T06:48:57.599Z,47.31
2018-12-29T06:51:23.574Z,47.21
2018-12-29T06:53:49.612Z,47.33
2018-12-29T06:56:15.598Z,47.29
2018-12-29T06:58:41.583Z,47.34
2018-12-29T07:01:07.599Z,47.30
2018-12-29T07:03:33.579Z,47.28
2018-12-29T07:05:59.592Z,47.25
2018-12-29T07:08:25.573Z,47.32
2018-12-29T07:10:51.539Z,47.22
2018-12-29T07:13:17.654Z,47.35
2018-12-29T07:15:43.625Z,47.03
2018-12-29T07:18:09.653Z,47.30
2018-12-29T07:20:35.680Z,47.29
2018-12-29T07:23:01.664Z,47.36
2018-12-29T07:25:28.254Z,47.12
2018-12-29T07:27:54.251Z,47.17
2018-12-29T07:30:20.228Z,47.26
2018-12-29T07:32:46.281Z,47.21
2018-12-29T07:35:14.253Z,47.30
2018-12-29T07:37:40.234Z,47.30
2018-12-29T07:40:06.254Z,47.21
2018-12-29T07:42:32.264Z,47.14
2018-12-29T07:44:58.235Z,47.27
2018-12-29T07:47:24.282Z,47.28
2018-12-29T07:49:50.248Z,47.36
2018-12-29T07:52:16.267Z,47.31
2018-12-29T07:54:42.281Z,47.24
2018-12-29T07:57:08.274Z,47.27
2018-12-29T07:59:34.246Z,47.31
2018-12-29T08:02:00.279Z,47.28
2018-12-29T08:04:26.249Z,47.21
2018-12-29T08:06:52.232Z,47.21
2018-12-29T08:09:18.247Z,47.21
2018-12-29T08:11:44.247Z,47.17
2018-12-29T08:14:10.245Z,47.25
2018-12-29T08:16:36.265Z,47.25
2018-12-29T08:19:02.233Z,47.14
2018-12-29T08:21:28.245Z,46.97
2018-12-29T08:23:54.481Z,47.07
2018-12-29T08:26:20.497Z,47.14
2018-12-29T08:28:46.555Z,47.21
2018-12-29T08:31:12.582Z,47.08
2018-12-29T08:33:39.925Z,47.29
2018-12-29T08:36:05.893Z,47.39
2018-12-29T08:38:31.973Z,47.42
2018-12-29T08:40:57.925Z,47.49
2018-12-29T08:43:34.494Z,47.51
2018-12-29T08:46:01.394Z,47.57
2018-12-29T08:48:27.722Z,47.60
2018-12-29T08:50:57.119Z,47.62
2018-12-29T08:53:23.097Z,47.63
2018-12-29T08:55:49.087Z,47.61
2018-12-29T08:58:15.115Z,47.29
2018-12-29T09:00:41.093Z,47.43
2018-12-29T09:03:08.069Z,47.43
2018-12-29T09:05:35.224Z,47.53
2018-12-29T09:08:01.204Z,47.30
2018-12-29T09:10:28.290Z,47.49
2018-12-29T09:12:54.654Z,47.49
2018-12-29T09:15:20.655Z,47.47
2018-12-29T09:17:46.664Z,47.53
2018-12-29T09:20:26.933Z,47.55
2018-12-29T09:22:52.931Z,47.41
2018-12-29T09:25:19.388Z,47.45
2018-12-29T09:27:53.049Z,47.63
2018-12-29T09:30:19.080Z,47.64
2018-12-29T09:32:45.070Z,47.59
2018-12-29T09:35:12.347Z,47.69
2018-12-29T09:37:38.355Z,47.67
2018-12-29T09:40:04.410Z,47.66
2018-12-29T09:42:30.572Z,47.75
2018-12-29T09:44:58.092Z,47.81
2018-12-29T09:47:24.118Z,48.01
2018-12-29T09:49:50.113Z,47.99
2018-12-29T09:52:16.093Z,48.00
2018-12-29T09:54:42.162Z,48.14
2018-12-29T09:57:08.127Z,48.23
2018-12-29T09:59:34.113Z,48.32
2018-12-29T10:02:00.151Z,48.38
2018-12-29T10:04:26.635Z,48.47
2018-12-29T10:06:53.382Z,48.47
2018-12-29T10:09:20.242Z,48.43
2018-12-29T10:11:46.962Z,48.43
2018-12-29T10:14:13.789Z,48.43
2018-12-29T10:16:40.453Z,48.42
2018-12-29T10:19:06.982Z,48.57
2018-12-29T10:21:33.835Z,48.48
2018-12-29T10:24:00.261Z,48.57
2018-12-29T10:26:26.797Z,48.52
2018-12-29T10:28:54.155Z,48.44
2018-12-29T10:31:20.671Z,48.42
2018-12-29T10:33:47.090Z,48.45
2018-12-29T10:36:13.660Z,48.44
2018-12-29T10:38:39.641Z,48.42
2018-12-29T10:41:05.608Z,48.40
2018-12-29T10:43:31.836Z,48.36
2018-12-29T10:45:58.166Z,48.28
2018-12-29T10:48:24.478Z,48.19
2018-12-29T10:50:51.960Z,48.13
2018-12-29T10:53:18.080Z,48.21
2018-12-29T10:55:44.487Z,48.23
2018-12-29T10:58:11.259Z,48.33
2018-12-29T11:00:37.898Z,48.52
2018-12-29T11:03:04.743Z,48.54
2018-12-29T11:05:31.586Z,48.65
2018-12-29T11:07:57.634Z,48.63
2018-12-29T11:10:23.622Z,48.64
2018-12-29T11:12:50.003Z,48.67
2018-12-29T11:15:16.627Z,48.68
2018-12-29T11:17:42.337Z,48.84
2018-12-29T11:20:07.979Z,49.02
2018-12-29T11:22:34.024Z,48.77
2018-12-29T11:25:00.018Z,48.83
2018-12-29T11:27:26.049Z,49.12
2018-12-29T11:29:52.024Z,49.24
2018-12-29T11:32:18.029Z,49.26
2018-12-29T11:34:44.063Z,49.36
2018-12-29T11:37:10.043Z,49.59
2018-12-29T11:39:36.066Z,49.70
2018-12-29T11:42:02.059Z,49.74
2018-12-29T11:44:28.035Z,49.56
2018-12-29T11:46:54.048Z,49.36
2018-12-29T11:49:20.119Z,49.49
2018-12-29T11:51:46.107Z,49.36
2018-12-29T11:54:12.150Z,49.51
2018-12-29T11:56:38.331Z,49.40
2018-12-29T11:59:04.307Z,49.34
2018-12-29T12:01:30.675Z,49.24
2018-12-29T12:03:56.637Z,49.24
2018-12-29T12:06:22.623Z,49.10
2018-12-29T12:08:48.753Z,49.09
2018-12-29T12:11:14.738Z,49.01
2018-12-29T12:13:40.742Z,48.98
2018-12-29T12:16:06.761Z,48.97
2018-12-29T12:18:32.746Z,48.96
2018-12-29T12:20:58.707Z,48.93
2018-12-29T12:23:24.721Z,48.91
2018-12-29T12:25:50.696Z,48.94
2018-12-29T12:28:16.697Z,48.88
2018-12-29T12:30:42.715Z,48.80
2018-12-29T12:33:08.690Z,48.73
2018-12-29T12:35:34.668Z,48.73
2018-12-29T12:38:00.683Z,48.75
2018-12-29T12:40:26.677Z,48.81
2018-12-29T12:42:52.648Z,48.86
2018-12-29T12:45:18.662Z,48.91
2018-12-29T12:47:44.630Z,48.89
2018-12-29T12:50:10.666Z,48.94
2018-12-29T12:52:36.725Z,48.94
2018-12-29T12:55:02.697Z,48.92
2018-12-29T12:57:28.738Z,48.84
2018-12-29T12:59:54.696Z,48.82
2018-12-29T13:02:20.681Z,48.78
2018-12-29T13:04:46.656Z,48.76
2018-12-29T13:07:12.683Z,48.79
2018-12-29T13:09:38.672Z,48.75
2018-12-29T13:12:04.699Z,48.79
2018-12-29T13:14:30.776Z,48.88
2018-12-29T13:16:56.762Z,48.86
2018-12-29T13:19:28.517Z,48.86
2018-12-29T13:21:48.794Z,48.87
2018-12-29T13:24:14.770Z,48.81
2018-12-29T13:26:40.781Z,48.75
2018-12-29T13:29:06.787Z,48.67
2018-12-29T13:31:32.927Z,48.61
2018-12-29T13:33:58.822Z,48.52
2018-12-29T13:36:24.777Z,48.42
2018-12-29T13:38:50.758Z,48.39
2018-12-29T13:41:16.781Z,48.30
2018-12-29T13:43:42.766Z,48.27
2018-12-29T13:46:08.732Z,48.25
2018-12-29T13:48:34.758Z,48.17
2018-12-29T13:51:00.723Z,48.12
2018-12-29T13:53:26.729Z,48.05
2018-12-29T13:55:52.738Z,47.97
2018-12-29T13:58:18.736Z,47.97
2018-12-29T14:00:44.726Z,47.91
2018-12-29T14:03:10.754Z,47.93
2018-12-29T14:05:36.731Z,47.68
2018-12-29T14:08:02.748Z,47.83
2018-12-29T14:10:28.748Z,47.83
2018-12-29T14:12:54.734Z,47.79
2018-12-29T14:15:20.754Z,47.68
2018-12-29T14:17:46.734Z,47.57
2018-12-29T14:20:12.769Z,47.54
2018-12-29T14:22:38.743Z,47.62
2018-12-29T14:25:04.750Z,47.56
2018-12-29T14:27:30.760Z,47.51
2018-12-29T14:29:56.736Z,47.55
2018-12-29T14:32:22.701Z,47.54
2018-12-29T14:35:04.800Z,47.37
2018-12-29T14:37:30.778Z,47.32
2018-12-29T14:39:57.026Z,47.43
2018-12-29T14:42:22.991Z,47.40
2018-12-29T14:44:50.510Z,47.40
2018-12-29T14:47:16.539Z,47.50
2018-12-29T14:49:42.510Z,47.44
2018-12-29T14:52:08.477Z,47.39
2018-12-29T14:54:34.499Z,47.45
2018-12-29T14:57:00.487Z,47.41
2018-12-29T14:59:26.468Z,47.33
2018-12-29T15:01:52.493Z,47.31
2018-12-29T15:04:18.483Z,47.33
2018-12-29T15:06:44.478Z,47.27
2018-12-29T15:09:11.830Z,47.30
2018-12-29T15:11:36.506Z,47.08
2018-12-29T15:14:02.487Z,46.81
2018-12-29T15:16:28.542Z,47.20
2018-12-29T15:18:54.537Z,47.22
2018-12-29T15:21:20.526Z,47.11
2018-12-29T15:23:46.555Z,47.12
2018-12-29T15:26:12.763Z,47.14
2018-12-29T15:28:38.795Z,47.08
2018-12-29T15:31:04.780Z,47.01
2018-12-29T15:33:30.808Z,47.06
2018-12-29T15:35:57.163Z,47.05
2018-12-29T15:38:23.928Z,46.95
2018-12-29T15:40:50.878Z,46.67
2018-12-29T15:43:16.993Z,46.75
2018-12-29T15:45:42.966Z,46.87
2018-12-29T15:48:08.993Z,46.90
2018-12-29T15:50:35.005Z,47.03
2018-12-29T15:53:00.983Z,46.95
2018-12-29T15:55:27.033Z,46.99
2018-12-29T15:57:53.055Z,46.97
2018-12-29T16:00:19.033Z,46.58
2018-12-29T16:02:45.090Z,47.04
2018-12-29T16:05:11.058Z,46.86
2018-12-29T16:07:37.071Z,47.06
2018-12-29T16:10:03.412Z,46.83
2018-12-29T16:12:29.420Z,47.06
2018-12-29T16:14:56.825Z,47.02
2018-12-29T16:17:22.855Z,47.07
2018-12-29T16:19:49.066Z,46.83
2018-12-29T16:22:15.081Z,47.07
2018-12-29T16:24:41.090Z,47.13
2018-12-29T16:27:07.127Z,47.26
2018-12-29T16:29:33.392Z,47.26
2018-12-29T16:31:59.510Z,47.31
2018-12-29T16:34:25.478Z,47.44
2018-12-29T16:36:51.512Z,47.51
2018-12-29T16:39:17.536Z,47.59
2018-12-29T16:41:43.522Z,47.72
2018-12-29T16:44:09.524Z,47.83
2018-12-29T16:46:35.537Z,47.98
2018-12-29T16:49:06.739Z,48.13
2018-12-29T16:51:27.493Z,48.27
2018-12-29T16:53:53.509Z,48.30
2018-12-29T16:56:19.473Z,48.38
2018-12-29T16:58:45.459Z,48.57
2018-12-29T17:01:11.556Z,48.50
2018-12-29T17:03:37.536Z,48.44
2018-12-29T17:06:03.501Z,48.45
2018-12-29T17:08:29.512Z,48.43
2018-12-29T17:10:55.494Z,48.42
2018-12-29T17:13:21.482Z,48.40
2018-12-29T17:15:47.498Z,48.36
2018-12-29T17:18:13.466Z,48.35
2018-12-29T17:20:39.450Z,48.32
2018-12-29T17:23:05.474Z,48.29
2018-12-29T17:25:31.499Z,48.17
2018-12-29T17:27:57.475Z,48.20
2018-12-29T17:30:23.462Z,48.18
2018-12-29T17:32:49.480Z,48.11
2018-12-29T17:35:15.462Z,48.10
2018-12-29T17:37:41.456Z,48.08
2018-12-29T17:40:07.505Z,47.99
2018-12-29T17:42:33.487Z,47.96
2018-12-29T17:44:59.480Z,47.93
2018-12-29T17:47:26.831Z,47.88
2018-12-29T17:49:51.493Z,47.83
2018-12-29T17:52:17.488Z,47.92
2018-12-29T17:54:43.519Z,47.97
2018-12-29T17:57:09.495Z,48.05
2018-12-29T17:59:35.494Z,48.01
2018-12-29T18:02:01.510Z,47.99
2018-12-29T18:04:27.516Z,47.96
2018-12-29T18:06:53.485Z,47.96
2018-12-29T18:09:19.547Z,47.90
2018-12-29T18:11:45.524Z,48.02
2018-12-29T18:14:11.602Z,47.99
2018-12-29T18:16:37.673Z,48.02
2018-12-29T18:19:04.383Z,48.15
2018-12-29T18:21:30.411Z,48.20
2018-12-29T18:23:56.643Z,48.23
2018-12-29T18:26:22.655Z,48.30
2018-12-29T18:28:48.650Z,48.31
2018-12-29T18:31:14.671Z,48.33
2018-12-29T18:33:40.755Z,48.30
2018-12-29T18:36:06.720Z,48.28
2018-12-29T18:38:32.815Z,48.37
2018-12-29T18:40:58.734Z,48.34
2018-12-29T18:43:24.713Z,48.47
2018-12-29T18:45:50.774Z,48.43
2018-12-29T18:48:16.806Z,48.60
2018-12-29T18:50:42.772Z,48.50
2018-12-29T18:53:08.921Z,48.76
2018-12-29T18:55:34.912Z,48.58
2018-12-29T18:58:00.894Z,48.63
2018-12-29T19:00:26.939Z,48.60
2018-12-29T19:02:52.917Z,48.59
2018-12-29T19:05:18.954Z,48.64
2018-12-29T19:07:44.918Z,48.91
2018-12-29T19:10:10.925Z,48.73
2018-12-29T19:12:37.037Z,48.76
2018-12-29T19:15:03.016Z,48.79
2018-12-29T19:17:28.976Z,48.76
2018-12-29T19:19:55.016Z,48.81
2018-12-29T19:22:21.012Z,48.89
2018-12-29T19:24:46.981Z,48.88
2018-12-29T19:27:13.007Z,48.80
2018-12-29T19:29:38.972Z,48.95
2018-12-29T19:32:04.963Z,48.87
2018-12-29T19:34:31.046Z,49.05
2018-12-29T19:36:57.025Z,48.92
2018-12-29T19:39:22.997Z,48.81
2018-12-29T19:41:54.877Z,48.73
2018-12-29T19:44:15.002Z,48.73
2018-12-29T19:46:40.994Z,48.68
2018-12-29T19:49:07.050Z,48.59
2018-12-29T19:51:33.062Z,48.55
2018-12-29T19:53:59.035Z,48.47
2018-12-29T19:56:25.144Z,48.43
2018-12-29T19:58:51.053Z,48.31
2018-12-29T20:01:17.056Z,48.55
2018-12-29T20:03:43.072Z,48.50
2018-12-29T20:06:11.327Z,48.56
2018-12-29T20:08:35.062Z,48.54
2018-12-29T20:11:01.777Z,48.56
2018-12-29T20:13:28.853Z,48.48
2018-12-29T20:15:53.781Z,48.61
2018-12-29T20:18:19.809Z,49.06
2018-12-29T20:20:45.790Z,48.69
2018-12-29T20:23:11.767Z,48.49
2018-12-29T20:25:37.797Z,48.38
2018-12-29T20:28:03.785Z,48.35
2018-12-29T20:30:29.760Z,48.37
2018-12-29T20:32:59.037Z,48.34
2018-12-29T20:35:21.802Z,48.38
2018-12-29T20:37:47.974Z,48.34
2018-12-29T20:40:13.784Z,48.35
2018-12-29T20:42:39.784Z,48.30
2018-12-29T20:45:06.101Z,48.35
2018-12-29T20:47:32.091Z,48.37
2018-12-29T20:50:00.012Z,48.41
2018-12-29T20:52:26.028Z,48.34
2018-12-29T20:54:52.189Z,48.37
2018-12-29T20:57:18.164Z,48.37
2018-12-29T20:59:44.135Z,48.42
2018-12-29T21:02:12.127Z,48.45
2018-12-29T21:04:36.185Z,48.51
2018-12-29T21:07:02.589Z,48.47
2018-12-29T21:09:28.609Z,48.50
2018-12-29T21:11:54.602Z,48.49
2018-12-29T21:14:20.590Z,48.52
2018-12-29T21:16:49.924Z,48.56
2018-12-29T21:19:16.641Z,48.50
2018-12-29T21:21:42.653Z,48.53
2018-12-29T21:24:13.661Z,48.54
2018-12-29T21:26:39.635Z,48.52
2018-12-29T21:29:11.631Z,48.58
2018-12-29T21:31:38.364Z,48.59
2018-12-29T21:34:06.716Z,48.57
2018-12-29T21:36:37.301Z,48.57
2018-12-29T21:39:03.332Z,48.60
2018-12-29T21:41:29.329Z,48.59
2018-12-29T21:43:55.303Z,48.60
2018-12-29T21:46:21.328Z,48.65
2018-12-29T21:48:47.307Z,48.67
2018-12-29T21:51:13.285Z,48.63
2018-12-29T21:53:39.324Z,48.65
2018-12-29T21:56:05.294Z,48.65
2018-12-29T21:58:31.280Z,48.67
2018-12-29T22:00:57.306Z,48.66
2018-12-29T22:03:23.293Z,48.66
2018-12-29T22:05:49.264Z,48.65
2018-12-29T22:08:15.332Z,48.67
2018-12-29T22:10:41.310Z,48.65
2018-12-29T22:13:07.301Z,48.68
2018-12-29T22:15:33.315Z,48.69
2018-12-29T22:17:59.336Z,48.67
2018-12-29T22:20:33.091Z,48.69
2018-12-29T22:22:51.347Z,48.70
2018-12-29T22:25:17.314Z,48.72
2018-12-29T22:27:43.307Z,48.74
2018-12-29T22:30:09.317Z,48.72
2018-12-29T22:32:35.323Z,48.72
2018-12-29T22:35:01.294Z,48.71
2018-12-29T22:37:27.322Z,48.74
2018-12-29T22:39:53.322Z,48.78
2018-12-29T22:42:19.310Z,48.77
2018-12-29T22:44:45.342Z,48.76
2018-12-29T22:47:11.300Z,48.77
2018-12-29T22:49:37.315Z,48.73
2018-12-29T22:52:03.364Z,48.76
2018-12-29T22:54:29.298Z,48.75
2018-12-29T22:56:55.280Z,48.75
2018-12-29T22:59:21.262Z,48.73
2018-12-29T23:01:47.265Z,48.78
2018-12-29T23:04:13.243Z,48.77
2018-12-29T23:06:39.254Z,48.76
2018-12-29T23:09:05.241Z,48.78
2018-12-29T23:11:31.233Z,48.77
2018-12-29T23:13:57.252Z,48.80
2018-12-29T23:16:23.235Z,48.83
2018-12-29T23:18:49.230Z,48.77
2018-12-29T23:21:15.243Z,48.73
2018-12-29T23:23:41.206Z,48.72
2018-12-29T23:26:07.230Z,48.70
2018-12-29T23:28:33.238Z,48.67
2018-12-29T23:30:59.219Z,48.62
2018-12-29T23:33:25.185Z,48.59
2018-12-29T23:35:51.252Z,48.63
2018-12-29T23:38:17.256Z,48.59
2018-12-29T23:40:43.256Z,48.59
2018-12-29T23:43:09.238Z,48.60
2018-12-29T23:45:35.281Z,48.58
2018-12-29T23:48:01.278Z,48.60
2018-12-29T23:50:27.257Z,48.60
2018-12-29T23:52:53.276Z,48.56
2018-12-29T23:55:19.269Z,48.46
2018-12-29T23:57:45.266Z,48.53
